Map

Track Data

SID SEASON NUMBER BASIN SUBBASIN NAME ISO_TIME NATURE LAT LON WMO_WIND WMO_PRES WMO_AGENCY TRACK_TYPE DIST2LAND LANDFALL IFLAG USA_AGENCY USA_ATCF_ID USA_LAT USA_LON USA_RECORD USA_STATUS USA_WIND USA_PRES USA_SSHS USA_R34_NE USA_R34_SE USA_R34_SW USA_R34_NW USA_R50_NE USA_R50_SE USA_R50_SW USA_R50_NW USA_R64_NE USA_R64_SE USA_R64_SW USA_R64_NW USA_POCI USA_ROCI USA_RMW USA_EYE TOKYO_LAT TOKYO_LON TOKYO_GRADE TOKYO_WIND TOKYO_PRES TOKYO_R50_DIR TOKYO_R50_LONG TOKYO_R50_SHORT TOKYO_R30_DIR TOKYO_R30_LONG TOKYO_R30_SHORT TOKYO_LAND CMA_LAT CMA_LON CMA_CAT CMA_WIND CMA_PRES HKO_LAT HKO_LON HKO_CAT HKO_WIND HKO_PRES NEWDELHI_LAT NEWDELHI_LON NEWDELHI_GRADE NEWDELHI_WIND NEWDELHI_PRES NEWDELHI_CI NEWDELHI_DP NEWDELHI_POCI REUNION_LAT REUNION_LON REUNION_TYPE REUNION_WIND REUNION_PRES REUNION_TNUM REUNION_CI REUNION_RMW REUNION_R34_NE REUNION_R34_SE REUNION_R34_SW REUNION_R34_NW REUNION_R50_NE REUNION_R50_SE REUNION_R50_SW REUNION_R50_NW REUNION_R64_NE REUNION_R64_SE REUNION_R64_SW REUNION_R64_NW BOM_LAT BOM_LON BOM_TYPE BOM_WIND BOM_PRES BOM_TNUM BOM_CI BOM_RMW BOM_R34_NE BOM_R34_SE BOM_R34_SW BOM_R34_NW BOM_R50_NE BOM_R50_SE BOM_R50_SW BOM_R50_NW BOM_R64_NE BOM_R64_SE BOM_R64_SW BOM_R64_NW BOM_ROCI BOM_POCI BOM_EYE BOM_POS_METHOD BOM_PRES_METHOD NADI_LAT NADI_LON NADI_CAT NADI_WIND NADI_PRES WELLINGTON_LAT WELLINGTON_LON WELLINGTON_WIND WELLINGTON_PRES DS824_LAT DS824_LON DS824_STAGE DS824_WIND DS824_PRES TD9636_LAT TD9636_LON TD9636_STAGE TD9636_WIND TD9636_PRES TD9635_LAT TD9635_LON TD9635_WIND TD9635_PRES TD9635_ROCI NEUMANN_LAT NEUMANN_LON NEUMANN_CLASS NEUMANN_WIND NEUMANN_PRES MLC_LAT MLC_LON MLC_CLASS MLC_WIND MLC_PRES USA_GUST BOM_GUST BOM_GUST_PER REUNION_GUST REUNION_GUST_PER USA_SEAHGT USA_SEARAD_NE USA_SEARAD_SE USA_SEARAD_SW USA_SEARAD_NW STORM_SPEED STORM_DIR
1987282N15277 1987 87 NA CS FLOYD 1987-10-09 06:00:00 TS 15.0000 -82.6000 25 1004 hurdat_atl main 53 53 O_____________ hurdat_atl AL131987 15.0000 -82.6000 TD 25 1004 -1 5 174
1987282N15277 1987 87 NA CS FLOYD 1987-10-09 09:00:00 TS 14.7575 -82.5826 main 58 58 P_____________ AL131987 14.7575 -82.5826 TD 25 1003 -1 5 169
1987282N15277 1987 87 NA CS FLOYD 1987-10-09 12:00:00 TS 14.5000 -82.5000 25 1003 hurdat_atl main 78 76 O_____________ hurdat_atl AL131987 14.5000 -82.5000 TD 25 1003 -1 6 153
1987282N15277 1987 87 NA CS FLOYD 1987-10-09 15:00:00 TS 14.2400 -82.3148 main 97 97 P_____________ AL131987 14.2400 -82.3148 TD 25 1002 -1 6 136
1987282N15277 1987 87 NA CS FLOYD 1987-10-09 18:00:00 TS 14.1000 -82.1000 25 1001 hurdat_atl main 120 120 O_____________ hurdat_atl AL131987 14.1000 -82.1000 TD 25 1001 -1 4 102
1987282N15277 1987 87 NA CS FLOYD 1987-10-09 21:00:00 TS 14.1525 -81.8903 main 140 140 P_____________ AL131987 14.1525 -81.8903 TD 25 1000 -1 4 44
1987282N15277 1987 87 NA CS FLOYD 1987-10-10 00:00:00 TS 14.4000 -81.8000 25 999 hurdat_atl main 151 120 O_____________ hurdat_atl AL131987 14.4000 -81.8000 TD 25 999 -1 7 352
1987282N15277 1987 87 NA CS FLOYD 1987-10-10 03:00:00 TS 14.8201 -81.9771 main 120 99 P_____________ AL131987 14.8201 -81.9771 TD 27 999 -1 10 337
1987282N15277 1987 87 NA CS FLOYD 1987-10-10 06:00:00 TS 15.3000 -82.2000 30 999 hurdat_atl main 102 102 O_____________ hurdat_atl AL131987 15.3000 -82.2000 TD 30 999 -1 9 350
1987282N15277 1987 87 NA CS FLOYD 1987-10-10 09:00:00 TS 15.6572 -82.1332 main 132 132 P_____________ AL131987 15.6572 -82.1332 TD 32 999 -1 7 0
1987282N15277 1987 87 NA CS FLOYD 1987-10-10 12:00:00 TS 16.0000 -82.2000 35 999 hurdat_atl main 147 134 O_____________ hurdat_atl AL131987 16.0000 -82.2000 TS 35 999 0 10 318
1987282N15277 1987 87 NA CS FLOYD 1987-10-10 15:00:00 TS 16.3934 -82.8192 main 138 134 P_____________ AL131987 16.3934 -82.8192 TS 35 999 0 15 303
1987282N15277 1987 87 NA CS FLOYD 1987-10-10 18:00:00 TS 16.8000 -83.5000 35 999 hurdat_atl main 140 134 O_____________ hurdat_atl AL131987 16.8000 -83.5000 TS 35 999 0 12 311
1987282N15277 1987 87 NA CS FLOYD 1987-10-10 21:00:00 TS 17.1996 -83.7754 main 165 165 P_____________ AL131987 17.1996 -83.7754 TS 37 999 0 9 334
1987282N15277 1987 87 NA CS FLOYD 1987-10-11 00:00:00 TS 17.6000 -83.9000 40 999 hurdat_atl main 205 205 O_____________ hurdat_atl AL131987 17.6000 -83.9000 TS 40 999 0 8 341
1987282N15277 1987 87 NA CS FLOYD 1987-10-11 03:00:00 TS 17.9850 -84.0577 main 243 243 P_____________ AL131987 17.9850 -84.0577 TS 40 998 0 9 340
1987282N15277 1987 87 NA CS FLOYD 1987-10-11 06:00:00 TS 18.4000 -84.2000 40 998 hurdat_atl main 284 284 O_____________ hurdat_atl AL131987 18.4000 -84.2000 TS 40 998 0 9 341
1987282N15277 1987 87 NA CS FLOYD 1987-10-11 09:00:00 TS 18.8775 -84.3723 main 322 268 P_____________ AL131987 18.8775 -84.3723 TS 42 997 0 10 344
1987282N15277 1987 87 NA CS FLOYD 1987-10-11 12:00:00 TS 19.4000 -84.5000 45 997 hurdat_atl main 268 212 O_____________ hurdat_atl AL131987 19.4000 -84.5000 TS 45 997 0 11 352
1987282N15277 1987 87 NA CS FLOYD 1987-10-11 15:00:00 TS 19.9350 -84.5375 main 212 145 P_____________ AL131987 19.9350 -84.5375 TS 47 996 0 11 0
1987282N15277 1987 87 NA CS FLOYD 1987-10-11 18:00:00 TS 20.5000 -84.5000 50 996 hurdat_atl main 145 78 O_____________ hurdat_atl AL131987 20.5000 -84.5000 TS 50 996 0 12 5
1987282N15277 1987 87 NA CS FLOYD 1987-10-11 21:00:00 TS 21.0850 -84.4225 main 78 22 P_____________ AL131987 21.0850 -84.4225 TS 52 995 0 12 9
1987282N15277 1987 87 NA CS FLOYD 1987-10-12 00:00:00 TS 21.7000 -84.3000 55 995 hurdat_atl main 22 0 O_____________ hurdat_atl AL131987 21.7000 -84.3000 TS 55 995 0 13 8
1987282N15277 1987 87 NA NA FLOYD 1987-10-12 03:00:00 TS 22.3647 -84.2168 main 0 0 P_____________ AL131987 22.3647 -84.2168 TS 57 994 0 13 12
1987282N15277 1987 87 NA GM FLOYD 1987-10-12 06:00:00 TS 23.0000 -84.0000 60 994 hurdat_atl main 33 33 O_____________ hurdat_atl AL131987 23.0000 -84.0000 TS 60 994 0 13 28
1987282N15277 1987 87 NA GM FLOYD 1987-10-12 09:00:00 TS 23.5450 -83.5327 main 67 67 P_____________ AL131987 23.5450 -83.5327 TS 62 993 0 14 45
1987282N15277 1987 87 NA NA FLOYD 1987-10-12 12:00:00 TS 24.0000 -82.9000 65 993 hurdat_atl main 108 105 O_____________ hurdat_atl AL131987 24.0000 -82.9000 HU 65 993 1 14 55
1987282N15277 1987 87 NA NA FLOYD 1987-10-12 15:00:00 TS 24.3596 -82.2809 main 142 60 P_____________ AL131987 24.3596 -82.2809 HU 65 993 1 15 61
1987282N15277 1987 87 NA NA FLOYD 1987-10-12 18:00:00 TS 24.7000 -81.5000 65 993 hurdat_atl main 60 10 O_____________ hurdat_atl AL131987 24.7000 -81.5000 HU 65 993 1 18 65
1987282N15277 1987 87 NA GM FLOYD 1987-10-12 21:00:00 TS 25.1000 -80.5000 65 993 hurdat_atl main 10 0 O_____________ hurdat_atl AL131987 25.1000 -80.5000 L HU 65 993 1 16 68
1987282N15277 1987 87 NA NA FLOYD 1987-10-13 00:00:00 TS 25.3000 -79.9000 60 993 hurdat_atl main 45 45 O_____________ hurdat_atl AL131987 25.3000 -79.9000 TS 60 993 0 13 68
1987282N15277 1987 87 NA NA FLOYD 1987-10-13 03:00:00 TS 25.5992 -79.1272 main 102 92 P_____________ AL131987 25.5992 -79.1272 TS 55 993 0 16 64
1987282N15277 1987 87 NA NA FLOYD 1987-10-13 06:00:00 TS 26.0000 -78.3000 50 994 hurdat_atl main 102 101 O_____________ hurdat_atl AL131987 26.0000 -78.3000 TS 50 994 0 16 58
1987282N15277 1987 87 NA NA FLOYD 1987-10-13 09:00:00 TS 26.4693 -77.5919 main 161 161 P_____________ AL131987 26.4693 -77.5919 TS 47 995 0 16 51
1987282N15277 1987 87 NA NA FLOYD 1987-10-13 12:00:00 TS 27.0000 -76.9000 45 996 hurdat_atl main 238 238 O_____________ hurdat_atl AL131987 27.0000 -76.9000 TS 45 996 0 17 51
1987282N15277 1987 87 NA NA FLOYD 1987-10-13 15:00:00 TS 27.5198 -76.1492 main 328 328 P_____________ AL131987 27.5198 -76.1492 TS 42 996 0 17 50
1987282N15277 1987 87 NA NA FLOYD 1987-10-13 18:00:00 ET 28.1000 -75.4000 40 997 hurdat_atl main 423 423 O_____________ hurdat_atl AL131987 28.1000 -75.4000 EX 40 997 -4 18 46
1987282N15277 1987 87 NA NA FLOYD 1987-10-13 21:00:00 ET 28.7730 -74.6896 main 526 526 P_____________ AL131987 28.7730 -74.6896 EX 40 997 -4 19 41
1987282N15277 1987 87 NA NA FLOYD 1987-10-14 00:00:00 ET 29.5000 -74.0000 40 998 hurdat_atl main 619 O_____________ hurdat_atl AL131987 29.5000 -74.0000 EX 40 998 -4 19 40

About IBTrACS Database

This database is a web-friendly format of International Best Track Archive for Climate Stewardship (IBTrACS), a global best track data archive curated by NOAA dating back to 1842.

Updated: 2021-10-19